sensor_id;sensor_type;location;lat;lon;timestamp;temperature;humidity
75819;DHT22;64453;51.944;9.796;2024-02-04T00:00:28;12.50;90.50
75819;DHT22;64453;51.944;9.796;2024-02-04T00:02:55;12.40;90.50
75819;DHT22;64453;51.944;9.796;2024-02-04T00:05:22;12.40;90.50
75819;DHT22;64453;51.944;9.796;2024-02-04T00:07:49;12.70;90.00
75819;DHT22;64453;51.944;9.796;2024-02-04T00:10:17;12.60;90.20
75819;DHT22;64453;51.944;9.796;2024-02-04T00:12:44;12.70;89.90
75819;DHT22;64453;51.944;9.796;2024-02-04T00:15:12;12.40;89.80
75819;DHT22;64453;51.944;9.796;2024-02-04T00:17:39;12.50;89.40
75819;DHT22;64453;51.944;9.796;2024-02-04T00:20:07;12.90;89.40
75819;DHT22;64453;51.944;9.796;2024-02-04T00:22:35;13.00;87.80
75819;DHT22;64453;51.944;9.796;2024-02-04T00:25:02;13.10;88.90
75819;DHT22;64453;51.944;9.796;2024-02-04T00:27:30;13.30;87.40
75819;DHT22;64453;51.944;9.796;2024-02-04T00:29:57;13.40;87.20
75819;DHT22;64453;51.944;9.796;2024-02-04T00:32:26;13.20;87.80
75819;DHT22;64453;51.944;9.796;2024-02-04T00:34:53;12.90;88.10
75819;DHT22;64453;51.944;9.796;2024-02-04T00:37:20;12.80;88.60
75819;DHT22;64453;51.944;9.796;2024-02-04T00:39:47;12.50;88.40
75819;DHT22;64453;51.944;9.796;2024-02-04T00:42:14;12.50;89.60
75819;DHT22;64453;51.944;9.796;2024-02-04T00:44:41;12.70;89.10
75819;DHT22;64453;51.944;9.796;2024-02-04T00:47:08;12.80;88.60
75819;DHT22;64453;51.944;9.796;2024-02-04T00:49:36;12.60;88.00
75819;DHT22;64453;51.944;9.796;2024-02-04T00:52:03;12.50;89.50
75819;DHT22;64453;51.944;9.796;2024-02-04T00:54:31;12.90;88.10
75819;DHT22;64453;51.944;9.796;2024-02-04T00:57:00;12.70;87.50
75819;DHT22;64453;51.944;9.796;2024-02-04T00:59:29;12.80;86.80
75819;DHT22;64453;51.944;9.796;2024-02-04T01:01:56;12.70;87.10
75819;DHT22;64453;51.944;9.796;2024-02-04T01:04:24;12.30;87.80
75819;DHT22;64453;51.944;9.796;2024-02-04T01:06:52;12.30;88.30
75819;DHT22;64453;51.944;9.796;2024-02-04T01:09:19;12.50;88.20
75819;DHT22;64453;51.944;9.796;2024-02-04T01:11:46;12.30;88.10
75819;DHT22;64453;51.944;9.796;2024-02-04T01:14:14;12.30;87.80
75819;DHT22;64453;51.944;9.796;2024-02-04T01:16:41;12.60;86.90
75819;DHT22;64453;51.944;9.796;2024-02-04T01:19:07;12.30;88.20
75819;DHT22;64453;51.944;9.796;2024-02-04T01:21:36;12.20;87.60
75819;DHT22;64453;51.944;9.796;2024-02-04T01:24:04;12.40;88.30
75819;DHT22;64453;51.944;9.796;2024-02-04T01:26:32;12.50;88.00
75819;DHT22;64453;51.944;9.796;2024-02-04T01:28:59;12.40;87.20
75819;DHT22;64453;51.944;9.796;2024-02-04T01:31:27;12.10;87.80
75819;DHT22;64453;51.944;9.796;2024-02-04T01:33:54;12.50;86.50
75819;DHT22;64453;51.944;9.796;2024-02-04T01:36:21;12.60;86.70
75819;DHT22;64453;51.944;9.796;2024-02-04T01:38:48;12.30;86.60
75819;DHT22;64453;51.944;9.796;2024-02-04T01:41:16;12.60;86.90
75819;DHT22;64453;51.944;9.796;2024-02-04T01:43:43;12.40;86.20
75819;DHT22;64453;51.944;9.796;2024-02-04T01:46:10;12.30;87.30
75819;DHT22;64453;51.944;9.796;2024-02-04T01:48:39;12.20;87.80
75819;DHT22;64453;51.944;9.796;2024-02-04T01:51:06;12.40;88.20
75819;DHT22;64453;51.944;9.796;2024-02-04T01:53:34;12.80;87.10
75819;DHT22;64453;51.944;9.796;2024-02-04T01:56:02;12.80;85.70
75819;DHT22;64453;51.944;9.796;2024-02-04T01:58:31;12.60;84.90
75819;DHT22;64453;51.944;9.796;2024-02-04T02:01:00;12.40;85.90
75819;DHT22;64453;51.944;9.796;2024-02-04T02:03:28;12.60;86.70
75819;DHT22;64453;51.944;9.796;2024-02-04T02:05:58;13.00;85.60
75819;DHT22;64453;51.944;9.796;2024-02-04T02:08:26;12.40;86.60
75819;DHT22;64453;51.944;9.796;2024-02-04T02:11:00;12.30;87.80
75819;DHT22;64453;51.944;9.796;2024-02-04T02:13:33;12.40;87.30
75819;DHT22;64453;51.944;9.796;2024-02-04T02:16:06;12.60;87.60
75819;DHT22;64453;51.944;9.796;2024-02-04T02:18:40;12.70;86.70
75819;DHT22;64453;51.944;9.796;2024-02-04T02:21:30;12.80;86.70
75819;DHT22;64453;51.944;9.796;2024-02-04T02:24:11;13.10;86.30
75819;DHT22;64453;51.944;9.796;2024-02-04T02:26:43;13.20;86.20
75819;DHT22;64453;51.944;9.796;2024-02-04T02:29:10;13.20;84.90
75819;DHT22;64453;51.944;9.796;2024-02-04T02:31:37;13.30;85.10
75819;DHT22;64453;51.944;9.796;2024-02-04T02:34:05;13.10;83.70
75819;DHT22;64453;51.944;9.796;2024-02-04T02:36:39;12.60;84.80
75819;DHT22;64453;51.944;9.796;2024-02-04T02:39:15;12.80;87.50
75819;DHT22;64453;51.944;9.796;2024-02-04T02:41:47;13.00;87.30
75819;DHT22;64453;51.944;9.796;2024-02-04T02:44:16;12.90;87.30
75819;DHT22;64453;51.944;9.796;2024-02-04T02:46:45;13.20;87.00
75819;DHT22;64453;51.944;9.796;2024-02-04T02:49:12;13.20;86.30
75819;DHT22;64453;51.944;9.796;2024-02-04T02:51:39;13.40;86.40
75819;DHT22;64453;51.944;9.796;2024-02-04T02:54:06;13.50;86.60
75819;DHT22;64453;51.944;9.796;2024-02-04T02:56:33;13.50;86.30
75819;DHT22;64453;51.944;9.796;2024-02-04T02:59:01;13.50;86.60
75819;DHT22;64453;51.944;9.796;2024-02-04T03:01:29;13.40;87.10
75819;DHT22;64453;51.944;9.796;2024-02-04T03:03:56;13.00;87.90
75819;DHT22;64453;51.944;9.796;2024-02-04T03:06:23;13.10;88.50
75819;DHT22;64453;51.944;9.796;2024-02-04T03:08:50;13.10;88.90
75819;DHT22;64453;51.944;9.796;2024-02-04T03:11:19;12.70;90.10
75819;DHT22;64453;51.944;9.796;2024-02-04T03:13:47;12.30;90.60
75819;DHT22;64453;51.944;9.796;2024-02-04T03:16:15;12.70;91.00
75819;DHT22;64453;51.944;9.796;2024-02-04T03:18:43;12.90;90.80
75819;DHT22;64453;51.944;9.796;2024-02-04T03:21:13;13.20;90.40
75819;DHT22;64453;51.944;9.796;2024-02-04T03:23:41;13.30;89.80
75819;DHT22;64453;51.944;9.796;2024-02-04T03:26:08;13.40;88.90
75819;DHT22;64453;51.944;9.796;2024-02-04T03:28:35;13.40;88.90
75819;DHT22;64453;51.944;9.796;2024-02-04T03:31:02;13.40;88.90
75819;DHT22;64453;51.944;9.796;2024-02-04T03:33:32;13.40;88.10
75819;DHT22;64453;51.944;9.796;2024-02-04T03:35:58;13.50;89.30
75819;DHT22;64453;51.944;9.796;2024-02-04T03:38:25;13.60;88.20
75819;DHT22;64453;51.944;9.796;2024-02-04T03:40:52;13.50;88.00
75819;DHT22;64453;51.944;9.796;2024-02-04T03:43:20;13.60;88.50
75819;DHT22;64453;51.944;9.796;2024-02-04T03:45:47;13.60;88.40
75819;DHT22;64453;51.944;9.796;2024-02-04T03:48:14;13.20;90.00
75819;DHT22;64453;51.944;9.796;2024-02-04T03:50:43;13.20;89.70
75819;DHT22;64453;51.944;9.796;2024-02-04T03:53:10;13.20;89.70
75819;DHT22;64453;51.944;9.796;2024-02-04T03:55:37;13.20;89.40
75819;DHT22;64453;51.944;9.796;2024-02-04T03:58:05;13.00;90.00
75819;DHT22;64453;51.944;9.796;2024-02-04T04:00:32;13.20;89.60
75819;DHT22;64453;51.944;9.796;2024-02-04T04:02:59;13.40;89.60
75819;DHT22;64453;51.944;9.796;2024-02-04T04:05:27;13.50;89.20
75819;DHT22;64453;51.944;9.796;2024-02-04T04:07:55;13.40;89.00
75819;DHT22;64453;51.944;9.796;2024-02-04T04:10:22;13.10;90.10
75819;DHT22;64453;51.944;9.796;2024-02-04T04:12:49;13.20;90.20
75819;DHT22;64453;51.944;9.796;2024-02-04T04:15:16;13.20;90.20
75819;DHT22;64453;51.944;9.796;2024-02-04T04:17:44;13.40;90.00
75819;DHT22;64453;51.944;9.796;2024-02-04T04:20:11;13.50;89.80
75819;DHT22;64453;51.944;9.796;2024-02-04T04:22:39;13.40;89.60
75819;DHT22;64453;51.944;9.796;2024-02-04T04:25:09;12.90;91.20
75819;DHT22;64453;51.944;9.796;2024-02-04T04:27:36;13.10;90.90
75819;DHT22;64453;51.944;9.796;2024-02-04T04:30:04;13.30;90.50
75819;DHT22;64453;51.944;9.796;2024-02-04T04:32:32;13.50;90.20
75819;DHT22;64453;51.944;9.796;2024-02-04T04:34:59;13.50;90.00
75819;DHT22;64453;51.944;9.796;2024-02-04T04:37:26;13.10;90.50
75819;DHT22;64453;51.944;9.796;2024-02-04T04:39:52;12.60;90.90
75819;DHT22;64453;51.944;9.796;2024-02-04T04:42:21;12.60;90.30
75819;DHT22;64453;51.944;9.796;2024-02-04T04:44:48;12.40;91.40
75819;DHT22;64453;51.944;9.796;2024-02-04T04:47:15;12.30;91.50
75819;DHT22;64453;51.944;9.796;2024-02-04T04:49:42;12.00;92.00
75819;DHT22;64453;51.944;9.796;2024-02-04T04:52:09;12.10;91.90
75819;DHT22;64453;51.944;9.796;2024-02-04T04:54:35;12.00;91.30
75819;DHT22;64453;51.944;9.796;2024-02-04T04:57:05;12.00;91.80
75819;DHT22;64453;51.944;9.796;2024-02-04T04:59:33;12.10;90.80
75819;DHT22;64453;51.944;9.796;2024-02-04T05:02:01;11.50;91.10
75819;DHT22;64453;51.944;9.796;2024-02-04T05:04:29;11.40;91.90
75819;DHT22;64453;51.944;9.796;2024-02-04T05:06:55;11.60;91.20
75819;DHT22;64453;51.944;9.796;2024-02-04T05:09:22;11.70;91.20
75819;DHT22;64453;51.944;9.796;2024-02-04T05:11:49;11.80;90.20
75819;DHT22;64453;51.944;9.796;2024-02-04T05:14:16;11.50;90.90
75819;DHT22;64453;51.944;9.796;2024-02-04T05:16:45;11.70;91.40
75819;DHT22;64453;51.944;9.796;2024-02-04T05:19:11;11.50;91.30
75819;DHT22;64453;51.944;9.796;2024-02-04T05:21:39;11.30;91.50
75819;DHT22;64453;51.944;9.796;2024-02-04T05:24:06;11.50;91.20
75819;DHT22;64453;51.944;9.796;2024-02-04T05:26:33;11.70;90.70
75819;DHT22;64453;51.944;9.796;2024-02-04T05:29:00;12.10;90.30
75819;DHT22;64453;51.944;9.796;2024-02-04T05:31:26;11.80;90.70
75819;DHT22;64453;51.944;9.796;2024-02-04T05:33:56;12.10;90.10
75819;DHT22;64453;51.944;9.796;2024-02-04T05:36:23;11.80;89.50
75819;DHT22;64453;51.944;9.796;2024-02-04T05:38:51;11.70;90.40
75819;DHT22;64453;51.944;9.796;2024-02-04T05:41:17;11.70;90.30
75819;DHT22;64453;51.944;9.796;2024-02-04T05:43:44;11.70;90.20
75819;DHT22;64453;51.944;9.796;2024-02-04T05:46:13;11.90;90.00
75819;DHT22;64453;51.944;9.796;2024-02-04T05:48:42;11.90;89.00
75819;DHT22;64453;51.944;9.796;2024-02-04T05:51:11;11.90;88.70
75819;DHT22;64453;51.944;9.796;2024-02-04T05:53:38;11.80;88.70
75819;DHT22;64453;51.944;9.796;2024-02-04T05:56:05;12.10;87.50
75819;DHT22;64453;51.944;9.796;2024-02-04T05:58:33;11.40;89.20
75819;DHT22;64453;51.944;9.796;2024-02-04T06:01:02;11.40;90.20
75819;DHT22;64453;51.944;9.796;2024-02-04T06:03:30;11.30;89.60
75819;DHT22;64453;51.944;9.796;2024-02-04T06:05:56;11.50;88.10
75819;DHT22;64453;51.944;9.796;2024-02-04T06:08:25;11.40;89.80
75819;DHT22;64453;51.944;9.796;2024-02-04T06:10:54;11.20;89.40
75819;DHT22;64453;51.944;9.796;2024-02-04T06:13:21;11.50;87.90
75819;DHT22;64453;51.944;9.796;2024-02-04T06:15:48;11.70;88.10
75819;DHT22;64453;51.944;9.796;2024-02-04T06:18:16;11.80;87.60
75819;DHT22;64453;51.944;9.796;2024-02-04T06:20:43;12.10;85.90
75819;DHT22;64453;51.944;9.796;2024-02-04T06:23:10;12.10;85.50
75819;DHT22;64453;51.944;9.796;2024-02-04T06:25:38;11.80;85.20
75819;DHT22;64453;51.944;9.796;2024-02-04T06:28:05;11.90;84.50
75819;DHT22;64453;51.944;9.796;2024-02-04T06:30:34;11.70;85.40
75819;DHT22;64453;51.944;9.796;2024-02-04T06:33:01;11.50;86.30
75819;DHT22;64453;51.944;9.796;2024-02-04T06:35:29;11.80;86.80
75819;DHT22;64453;51.944;9.796;2024-02-04T06:37:56;12.00;84.40
75819;DHT22;64453;51.944;9.796;2024-02-04T06:40:24;11.90;85.50
75819;DHT22;64453;51.944;9.796;2024-02-04T06:42:52;11.60;85.60
75819;DHT22;64453;51.944;9.796;2024-02-04T06:45:19;11.80;86.80
75819;DHT22;64453;51.944;9.796;2024-02-04T06:47:46;12.20;85.60
75819;DHT22;64453;51.944;9.796;2024-02-04T06:50:14;12.00;85.50
75819;DHT22;64453;51.944;9.796;2024-02-04T06:52:42;11.80;86.20
75819;DHT22;64453;51.944;9.796;2024-02-04T06:55:11;11.50;86.50
75819;DHT22;64453;51.944;9.796;2024-02-04T06:57:38;11.90;86.40
75819;DHT22;64453;51.944;9.796;2024-02-04T07:00:08;11.90;84.80
75819;DHT22;64453;51.944;9.796;2024-02-04T07:02:36;11.80;85.50
75819;DHT22;64453;51.944;9.796;2024-02-04T07:05:04;11.90;84.40
75819;DHT22;64453;51.944;9.796;2024-02-04T07:07:31;11.50;83.70
75819;DHT22;64453;51.944;9.796;2024-02-04T07:09:59;11.50;85.80
75819;DHT22;64453;51.944;9.796;2024-02-04T07:12:26;11.80;85.10
75819;DHT22;64453;51.944;9.796;2024-02-04T07:14:53;12.00;83.00
75819;DHT22;64453;51.944;9.796;2024-02-04T07:17:21;11.90;83.30
75819;DHT22;64453;51.944;9.796;2024-02-04T07:19:48;11.90;83.30
75819;DHT22;64453;51.944;9.796;2024-02-04T07:22:15;12.20;82.50
75819;DHT22;64453;51.944;9.796;2024-02-04T07:24:43;11.70;82.40
75819;DHT22;64453;51.944;9.796;2024-02-04T07:27:10;11.80;84.00
75819;DHT22;64453;51.944;9.796;2024-02-04T07:29:37;11.70;82.60
75819;DHT22;64453;51.944;9.796;2024-02-04T07:32:04;11.50;83.00
75819;DHT22;64453;51.944;9.796;2024-02-04T07:34:33;11.50;83.90
75819;DHT22;64453;51.944;9.796;2024-02-04T07:37:00;11.80;83.30
75819;DHT22;64453;51.944;9.796;2024-02-04T07:39:28;11.70;83.60
75819;DHT22;64453;51.944;9.796;2024-02-04T07:41:56;11.80;83.30
75819;DHT22;64453;51.944;9.796;2024-02-04T07:44:26;11.70;83.70
75819;DHT22;64453;51.944;9.796;2024-02-04T07:46:54;12.00;83.00
75819;DHT22;64453;51.944;9.796;2024-02-04T07:49:21;11.70;83.90
75819;DHT22;64453;51.944;9.796;2024-02-04T07:51:49;11.80;83.20
75819;DHT22;64453;51.944;9.796;2024-02-04T07:54:16;11.90;83.60
75819;DHT22;64453;51.944;9.796;2024-02-04T07:56:43;11.80;83.00
75819;DHT22;64453;51.944;9.796;2024-02-04T07:59:10;12.00;82.30
75819;DHT22;64453;51.944;9.796;2024-02-04T08:01:37;11.80;82.60
75819;DHT22;64453;51.944;9.796;2024-02-04T08:04:04;12.00;82.50
75819;DHT22;64453;51.944;9.796;2024-02-04T08:06:34;11.60;82.90
75819;DHT22;64453;51.944;9.796;2024-02-04T08:09:02;11.80;83.50
75819;DHT22;64453;51.944;9.796;2024-02-04T08:11:29;12.10;83.00
75819;DHT22;64453;51.944;9.796;2024-02-04T08:13:57;12.00;82.00
75819;DHT22;64453;51.944;9.796;2024-02-04T08:16:24;11.60;83.90
75819;DHT22;64453;51.944;9.796;2024-02-04T08:18:52;11.80;83.80
75819;DHT22;64453;51.944;9.796;2024-02-04T08:21:19;11.60;84.40
75819;DHT22;64453;51.944;9.796;2024-02-04T08:23:46;12.00;85.60
75819;DHT22;64453;51.944;9.796;2024-02-04T08:26:14;12.00;85.60
75819;DHT22;64453;51.944;9.796;2024-02-04T08:28:41;11.80;85.70
75819;DHT22;64453;51.944;9.796;2024-02-04T08:31:08;11.80;86.90
75819;DHT22;64453;51.944;9.796;2024-02-04T08:33:35;12.20;86.90
75819;DHT22;64453;51.944;9.796;2024-02-04T08:36:02;12.50;85.60
75819;DHT22;64453;51.944;9.796;2024-02-04T08:38:30;12.70;85.20
75819;DHT22;64453;51.944;9.796;2024-02-04T08:40:58;12.60;85.50
75819;DHT22;64453;51.944;9.796;2024-02-04T08:43:27;12.30;87.20
75819;DHT22;64453;51.944;9.796;2024-02-04T08:45:54;12.50;89.30
75819;DHT22;64453;51.944;9.796;2024-02-04T08:48:20;12.50;88.00
75819;DHT22;64453;51.944;9.796;2024-02-04T08:50:47;11.90;90.00
75819;DHT22;64453;51.944;9.796;2024-02-04T08:53:14;12.30;90.00
75819;DHT22;64453;51.944;9.796;2024-02-04T08:55:41;11.90;90.20
75819;DHT22;64453;51.944;9.796;2024-02-04T08:58:09;12.10;90.00
75819;DHT22;64453;51.944;9.796;2024-02-04T09:00:37;11.70;90.40
75819;DHT22;64453;51.944;9.796;2024-02-04T09:03:04;11.50;90.60
75819;DHT22;64453;51.944;9.796;2024-02-04T09:05:31;11.50;90.00
75819;DHT22;64453;51.944;9.796;2024-02-04T09:07:58;11.80;90.40
75819;DHT22;64453;51.944;9.796;2024-02-04T09:10:25;11.80;89.00
75819;DHT22;64453;51.944;9.796;2024-02-04T09:12:52;11.30;87.90
75819;DHT22;64453;51.944;9.796;2024-02-04T09:15:19;11.20;89.90
75819;DHT22;64453;51.944;9.796;2024-02-04T09:17:48;11.10;89.20
75819;DHT22;64453;51.944;9.796;2024-02-04T09:20:14;11.10;88.50
75819;DHT22;64453;51.944;9.796;2024-02-04T09:22:42;11.20;87.70
75819;DHT22;64453;51.944;9.796;2024-02-04T09:25:09;11.20;87.30
75819;DHT22;64453;51.944;9.796;2024-02-04T09:27:36;11.40;86.00
75819;DHT22;64453;51.944;9.796;2024-02-04T09:30:04;11.50;85.60
75819;DHT22;64453;51.944;9.796;2024-02-04T09:32:32;11.40;83.00
75819;DHT22;64453;51.944;9.796;2024-02-04T09:35:01;11.60;85.10
75819;DHT22;64453;51.944;9.796;2024-02-04T09:37:28;11.50;83.50
75819;DHT22;64453;51.944;9.796;2024-02-04T09:39:55;11.30;84.50
75819;DHT22;64453;51.944;9.796;2024-02-04T09:42:22;11.30;84.90
75819;DHT22;64453;51.944;9.796;2024-02-04T09:44:50;11.50;84.40
75819;DHT22;64453;51.944;9.796;2024-02-04T09:47:17;11.20;85.10
75819;DHT22;64453;51.944;9.796;2024-02-04T09:49:45;11.00;84.30
75819;DHT22;64453;51.944;9.796;2024-02-04T09:52:18;11.30;84.30
75819;DHT22;64453;51.944;9.796;2024-02-04T09:54:50;11.60;83.80
75819;DHT22;64453;51.944;9.796;2024-02-04T09:57:22;11.30;80.60
75819;DHT22;64453;51.944;9.796;2024-02-04T09:59:51;11.20;79.30
75819;DHT22;64453;51.944;9.796;2024-02-04T10:02:18;11.30;79.00
75819;DHT22;64453;51.944;9.796;2024-02-04T10:04:46;11.50;78.50
75819;DHT22;64453;51.944;9.796;2024-02-04T10:07:15;11.30;79.00
75819;DHT22;64453;51.944;9.796;2024-02-04T10:09:43;11.60;78.50
75819;DHT22;64453;51.944;9.796;2024-02-04T10:12:10;11.50;77.30
75819;DHT22;64453;51.944;9.796;2024-02-04T10:14:37;10.90;77.70
75819;DHT22;64453;51.944;9.796;2024-02-04T10:17:04;11.10;78.30
75819;DHT22;64453;51.944;9.796;2024-02-04T10:19:31;11.00;78.60
75819;DHT22;64453;51.944;9.796;2024-02-04T10:21:59;11.40;80.00
75819;DHT22;64453;51.944;9.796;2024-02-04T10:24:28;11.80;76.30
75819;DHT22;64453;51.944;9.796;2024-02-04T10:26:56;11.80;75.80
75819;DHT22;64453;51.944;9.796;2024-02-04T10:29:23;11.40;75.10
75819;DHT22;64453;51.944;9.796;2024-02-04T10:31:53;11.10;76.30
75819;DHT22;64453;51.944;9.796;2024-02-04T10:34:23;11.30;77.30
75819;DHT22;64453;51.944;9.796;2024-02-04T10:36:50;11.30;75.80
75819;DHT22;64453;51.944;9.796;2024-02-04T10:39:17;11.30;75.80
75819;DHT22;64453;51.944;9.796;2024-02-04T10:41:49;11.40;75.20
75819;DHT22;64453;51.944;9.796;2024-02-04T10:44:21;11.40;75.80
75819;DHT22;64453;51.944;9.796;2024-02-04T10:46:50;11.40;76.20
75819;DHT22;64453;51.944;9.796;2024-02-04T10:49:19;11.50;76.10
75819;DHT22;64453;51.944;9.796;2024-02-04T10:51:46;11.50;76.50
75819;DHT22;64453;51.944;9.796;2024-02-04T10:54:15;11.30;75.40
75819;DHT22;64453;51.944;9.796;2024-02-04T10:56:44;11.00;75.10
75819;DHT22;64453;51.944;9.796;2024-02-04T10:59:17;11.30;76.90
75819;DHT22;64453;51.944;9.796;2024-02-04T11:01:46;11.20;77.30
75819;DHT22;64453;51.944;9.796;2024-02-04T11:04:15;11.10;76.90
75819;DHT22;64453;51.944;9.796;2024-02-04T11:06:44;11.20;77.20
75819;DHT22;64453;51.944;9.796;2024-02-04T11:09:12;11.10;77.70
75819;DHT22;64453;51.944;9.796;2024-02-04T11:11:41;11.30;78.20
75819;DHT22;64453;51.944;9.796;2024-02-04T11:14:10;11.20;77.80
75819;DHT22;64453;51.944;9.796;2024-02-04T11:17:09;11.40;78.30
75819;DHT22;64453;51.944;9.796;2024-02-04T11:19:57;11.00;79.40
75819;DHT22;64453;51.944;9.796;2024-02-04T11:22:48;11.20;78.00
75819;DHT22;64453;51.944;9.796;2024-02-04T11:25:39;11.10;79.50
75819;DHT22;64453;51.944;9.796;2024-02-04T11:28:10;11.00;78.70
75819;DHT22;64453;51.944;9.796;2024-02-04T11:30:39;11.00;79.50
75819;DHT22;64453;51.944;9.796;2024-02-04T11:33:09;11.10;79.60
75819;DHT22;64453;51.944;9.796;2024-02-04T11:35:37;10.90;78.50
75819;DHT22;64453;51.944;9.796;2024-02-04T11:38:04;11.40;78.00
75819;DHT22;64453;51.944;9.796;2024-02-04T11:40:34;11.10;78.80
75819;DHT22;64453;51.944;9.796;2024-02-04T11:43:06;11.50;79.50
75819;DHT22;64453;51.944;9.796;2024-02-04T11:45:37;11.30;77.50
75819;DHT22;64453;51.944;9.796;2024-02-04T11:48:09;11.50;78.80
75819;DHT22;64453;51.944;9.796;2024-02-04T11:50:38;11.80;76.80
75819;DHT22;64453;51.944;9.796;2024-02-04T11:53:06;11.10;78.00
75819;DHT22;64453;51.944;9.796;2024-02-04T11:55:34;11.30;79.30
75819;DHT22;64453;51.944;9.796;2024-02-04T11:58:01;11.10;79.10
75819;DHT22;64453;51.944;9.796;2024-02-04T12:00:29;11.20;78.60
75819;DHT22;64453;51.944;9.796;2024-02-04T12:03:02;11.50;78.10
75819;DHT22;64453;51.944;9.796;2024-02-04T12:05:37;11.20;78.10
75819;DHT22;64453;51.944;9.796;2024-02-04T12:08:06;11.60;77.60
75819;DHT22;64453;51.944;9.796;2024-02-04T12:10:35;11.90;76.60
75819;DHT22;64453;51.944;9.796;2024-02-04T12:13:04;11.50;75.90
75819;DHT22;64453;51.944;9.796;2024-02-04T12:15:34;11.60;77.10
75819;DHT22;64453;51.944;9.796;2024-02-04T12:18:08;11.40;76.40
75819;DHT22;64453;51.944;9.796;2024-02-04T12:20:38;11.50;77.00
75819;DHT22;64453;51.944;9.796;2024-02-04T12:23:06;11.50;77.20
75819;DHT22;64453;51.944;9.796;2024-02-04T12:25:34;11.90;75.50
75819;DHT22;64453;51.944;9.796;2024-02-04T12:28:02;12.30;75.20
75819;DHT22;64453;51.944;9.796;2024-02-04T12:30:31;11.70;74.30
75819;DHT22;64453;51.944;9.796;2024-02-04T12:32:59;11.70;75.50
75819;DHT22;64453;51.944;9.796;2024-02-04T12:35:27;11.90;75.60
75819;DHT22;64453;51.944;9.796;2024-02-04T12:37:57;11.70;74.80
75819;DHT22;64453;51.944;9.796;2024-02-04T12:40:25;11.80;76.00
75819;DHT22;64453;51.944;9.796;2024-02-04T12:42:57;12.00;74.70
75819;DHT22;64453;51.944;9.796;2024-02-04T12:45:25;12.10;74.80
75819;DHT22;64453;51.944;9.796;2024-02-04T12:47:54;11.60;76.60
75819;DHT22;64453;51.944;9.796;2024-02-04T12:50:23;11.70;76.20
75819;DHT22;64453;51.944;9.796;2024-02-04T12:53:03;11.70;77.10
75819;DHT22;64453;51.944;9.796;2024-02-04T12:55:31;11.70;78.20
75819;DHT22;64453;51.944;9.796;2024-02-04T12:58:05;11.70;78.80
75819;DHT22;64453;51.944;9.796;2024-02-04T13:00:34;11.60;80.10
75819;DHT22;64453;51.944;9.796;2024-02-04T13:03:02;11.60;79.60
75819;DHT22;64453;51.944;9.796;2024-02-04T13:05:30;11.30;81.30
75819;DHT22;64453;51.944;9.796;2024-02-04T13:07:58;11.10;81.20
75819;DHT22;64453;51.944;9.796;2024-02-04T13:10:30;11.30;83.20
75819;DHT22;64453;51.944;9.796;2024-02-04T13:13:00;11.80;82.10
75819;DHT22;64453;51.944;9.796;2024-02-04T13:15:28;11.70;81.20
75819;DHT22;64453;51.944;9.796;2024-02-04T13:17:57;11.50;83.30
75819;DHT22;64453;51.944;9.796;2024-02-04T13:20:25;12.00;81.30
75819;DHT22;64453;51.944;9.796;2024-02-04T13:22:52;11.90;81.80
75819;DHT22;64453;51.944;9.796;2024-02-04T13:25:20;11.80;82.30
75819;DHT22;64453;51.944;9.796;2024-02-04T13:27:49;11.50;81.50
75819;DHT22;64453;51.944;9.796;2024-02-04T13:30:16;11.80;82.50
75819;DHT22;64453;51.944;9.796;2024-02-04T13:32:50;11.80;81.90
75819;DHT22;64453;51.944;9.796;2024-02-04T13:35:17;11.40;83.30
75819;DHT22;64453;51.944;9.796;2024-02-04T13:37:46;11.70;84.10
75819;DHT22;64453;51.944;9.796;2024-02-04T13:40:18;11.90;83.00
75819;DHT22;64453;51.944;9.796;2024-02-04T13:42:46;11.50;82.90
75819;DHT22;64453;51.944;9.796;2024-02-04T13:45:15;11.80;83.90
75819;DHT22;64453;51.944;9.796;2024-02-04T13:47:42;11.80;83.60
75819;DHT22;64453;51.944;9.796;2024-02-04T13:50:10;11.70;82.90
75819;DHT22;64453;51.944;9.796;2024-02-04T13:52:38;11.60;83.90
75819;DHT22;64453;51.944;9.796;2024-02-04T13:55:06;11.70;84.30
75819;DHT22;64453;51.944;9.796;2024-02-04T13:57:33;11.80;85.10
75819;DHT22;64453;51.944;9.796;2024-02-04T14:00:01;12.00;84.80
75819;DHT22;64453;51.944;9.796;2024-02-04T14:02:31;12.10;86.00
75819;DHT22;64453;51.944;9.796;2024-02-04T14:04:58;12.30;85.40
75819;DHT22;64453;51.944;9.796;2024-02-04T14:07:25;11.90;85.60
75819;DHT22;64453;51.944;9.796;2024-02-04T14:09:53;12.30;85.00
75819;DHT22;64453;51.944;9.796;2024-02-04T14:12:20;11.90;85.40
75819;DHT22;64453;51.944;9.796;2024-02-04T14:14:48;12.00;86.70
75819;DHT22;64453;51.944;9.796;2024-02-04T14:17:15;12.00;86.60
75819;DHT22;64453;51.944;9.796;2024-02-04T14:19:44;12.40;85.10
75819;DHT22;64453;51.944;9.796;2024-02-04T14:22:15;12.00;86.20
75819;DHT22;64453;51.944;9.796;2024-02-04T14:24:43;11.90;86.60
75819;DHT22;64453;51.944;9.796;2024-02-04T14:27:11;11.60;89.30
75819;DHT22;64453;51.944;9.796;2024-02-04T14:29:38;11.60;88.80
75819;DHT22;64453;51.944;9.796;2024-02-04T14:32:05;11.60;90.10
75819;DHT22;64453;51.944;9.796;2024-02-04T14:34:34;11.80;89.60
75819;DHT22;64453;51.944;9.796;2024-02-04T14:37:04;11.60;88.90
75819;DHT22;64453;51.944;9.796;2024-02-04T14:39:38;11.70;88.50
75819;DHT22;64453;51.944;9.796;2024-02-04T14:42:06;11.80;89.10
75819;DHT22;64453;51.944;9.796;2024-02-04T14:44:34;11.70;89.10
75819;DHT22;64453;51.944;9.796;2024-02-04T14:47:02;11.30;89.10
75819;DHT22;64453;51.944;9.796;2024-02-04T14:49:29;11.50;90.40
75819;DHT22;64453;51.944;9.796;2024-02-04T14:51:56;11.80;88.60
75819;DHT22;64453;51.944;9.796;2024-02-04T14:54:25;11.60;89.30
75819;DHT22;64453;51.944;9.796;2024-02-04T14:56:53;11.70;87.70
75819;DHT22;64453;51.944;9.796;2024-02-04T14:59:21;11.40;90.30
75819;DHT22;64453;51.944;9.796;2024-02-04T15:01:48;11.80;89.80
75819;DHT22;64453;51.944;9.796;2024-02-04T15:04:21;11.90;88.30
75819;DHT22;64453;51.944;9.796;2024-02-04T15:06:53;11.30;88.30
75819;DHT22;64453;51.944;9.796;2024-02-04T15:09:23;11.60;88.50
75819;DHT22;64453;51.944;9.796;2024-02-04T15:11:53;11.30;88.90
75819;DHT22;64453;51.944;9.796;2024-02-04T15:14:23;11.40;87.10
75819;DHT22;64453;51.944;9.796;2024-02-04T15:16:54;11.40;87.50
75819;DHT22;64453;51.944;9.796;2024-02-04T15:19:22;11.20;88.60
75819;DHT22;64453;51.944;9.796;2024-02-04T15:21:50;11.40;89.40
75819;DHT22;64453;51.944;9.796;2024-02-04T15:24:20;11.50;88.20
75819;DHT22;64453;51.944;9.796;2024-02-04T15:26:48;11.10;88.60
75819;DHT22;64453;51.944;9.796;2024-02-04T15:29:19;11.20;90.00
75819;DHT22;64453;51.944;9.796;2024-02-04T15:31:47;11.20;89.00
75819;DHT22;64453;51.944;9.796;2024-02-04T15:34:17;11.50;88.50
75819;DHT22;64453;51.944;9.796;2024-02-04T15:36:46;11.70;88.30